sensor_id;sensor_type;location;lat;lon;timestamp;temperature;humidity
10062;DHT22;5070;52.382;5.270;2022-08-01T00:01:43;25.10;79.90
10062;DHT22;5070;52.382;5.270;2022-08-01T00:04:13;25.10;79.80
10062;DHT22;5070;52.382;5.270;2022-08-01T00:06:44;25.10;79.40
10062;DHT22;5070;52.382;5.270;2022-08-01T00:09:12;25.10;79.60
10062;DHT22;5070;52.382;5.270;2022-08-01T00:11:50;25.10;79.40
10062;DHT22;5070;52.382;5.270;2022-08-01T00:14:26;25.10;79.50
10062;DHT22;5070;52.382;5.270;2022-08-01T00:16:58;25.10;79.60
10062;DHT22;5070;52.382;5.270;2022-08-01T00:19:34;25.10;79.20
10062;DHT22;5070;52.382;5.270;2022-08-01T00:22:05;25.10;79.60
10062;DHT22;5070;52.382;5.270;2022-08-01T00:24:34;25.10;79.50
10062;DHT22;5070;52.382;5.270;2022-08-01T00:27:02;25.10;79.30
10062;DHT22;5070;52.382;5.270;2022-08-01T00:29:30;25.10;79.60
10062;DHT22;5070;52.382;5.270;2022-08-01T00:32:18;25.10;79.50
10062;DHT22;5070;52.382;5.270;2022-08-01T00:34:48;25.10;79.70
10062;DHT22;5070;52.382;5.270;2022-08-01T00:37:16;25.10;79.60
10062;DHT22;5070;52.382;5.270;2022-08-01T00:39:44;25.10;79.70
10062;DHT22;5070;52.382;5.270;2022-08-01T00:42:13;25.10;79.60
10062;DHT22;5070;52.382;5.270;2022-08-01T00:44:44;25.10;79.50
10062;DHT22;5070;52.382;5.270;2022-08-01T00:47:12;25.10;79.70
10062;DHT22;5070;52.382;5.270;2022-08-01T00:49:40;25.10;79.80
10062;DHT22;5070;52.382;5.270;2022-08-01T00:52:09;25.10;79.90
10062;DHT22;5070;52.382;5.270;2022-08-01T00:54:38;25.10;79.90
10062;DHT22;5070;52.382;5.270;2022-08-01T00:57:09;25.10;79.60
10062;DHT22;5070;52.382;5.270;2022-08-01T00:59:40;25.10;79.80
10062;DHT22;5070;52.382;5.270;2022-08-01T01:02:09;25.10;79.60
10062;DHT22;5070;52.382;5.270;2022-08-01T01:04:41;25.10;79.50
10062;DHT22;5070;52.382;5.270;2022-08-01T01:07:21;25.10;79.60
10062;DHT22;5070;52.382;5.270;2022-08-01T01:09:58;25.10;79.50
10062;DHT22;5070;52.382;5.270;2022-08-01T01:12:31;25.10;79.60
10062;DHT22;5070;52.382;5.270;2022-08-01T01:15:06;25.10;79.50
10062;DHT22;5070;52.382;5.270;2022-08-01T01:17:38;25.10;79.40
10062;DHT22;5070;52.382;5.270;2022-08-01T01:20:19;25.10;79.60
10062;DHT22;5070;52.382;5.270;2022-08-01T01:23:10;25.10;79.60
10062;DHT22;5070;52.382;5.270;2022-08-01T01:25:46;25.10;79.50
10062;DHT22;5070;52.382;5.270;2022-08-01T01:28:29;25.10;79.60
10062;DHT22;5070;52.382;5.270;2022-08-01T01:31:04;25.10;79.60
10062;DHT22;5070;52.382;5.270;2022-08-01T01:33:40;25.10;79.70
10062;DHT22;5070;52.382;5.270;2022-08-01T01:36:14;25.10;79.70
10062;DHT22;5070;52.382;5.270;2022-08-01T01:38:45;25.10;79.50
10062;DHT22;5070;52.382;5.270;2022-08-01T01:41:16;25.00;79.50
10062;DHT22;5070;52.382;5.270;2022-08-01T01:43:52;25.00;79.60
10062;DHT22;5070;52.382;5.270;2022-08-01T01:46:24;25.10;79.70
10062;DHT22;5070;52.382;5.270;2022-08-01T01:48:55;25.00;79.80
10062;DHT22;5070;52.382;5.270;2022-08-01T01:51:28;25.00;79.70
10062;DHT22;5070;52.382;5.270;2022-08-01T01:54:01;25.00;79.80
10062;DHT22;5070;52.382;5.270;2022-08-01T01:56:30;25.00;79.80
10062;DHT22;5070;52.382;5.270;2022-08-01T01:59:01;25.00;79.70
10062;DHT22;5070;52.382;5.270;2022-08-01T02:01:32;25.00;79.80
10062;DHT22;5070;52.382;5.270;2022-08-01T02:04:23;25.00;79.80
10062;DHT22;5070;52.382;5.270;2022-08-01T02:06:52;25.00;79.80
10062;DHT22;5070;52.382;5.270;2022-08-01T02:09:21;25.00;79.70
10062;DHT22;5070;52.382;5.270;2022-08-01T02:11:51;25.00;79.60
10062;DHT22;5070;52.382;5.270;2022-08-01T02:14:35;25.00;79.60
10062;DHT22;5070;52.382;5.270;2022-08-01T02:17:05;25.00;79.50
10062;DHT22;5070;52.382;5.270;2022-08-01T02:19:34;25.00;79.50
10062;DHT22;5070;52.382;5.270;2022-08-01T02:22:06;25.00;79.40
10062;DHT22;5070;52.382;5.270;2022-08-01T02:24:37;25.00;79.30
10062;DHT22;5070;52.382;5.270;2022-08-01T02:27:10;25.00;79.40
10062;DHT22;5070;52.382;5.270;2022-08-01T02:29:43;25.00;79.30
10062;DHT22;5070;52.382;5.270;2022-08-01T02:32:17;25.00;79.30
10062;DHT22;5070;52.382;5.270;2022-08-01T02:34:49;25.00;79.30
10062;DHT22;5070;52.382;5.270;2022-08-01T02:37:19;25.00;79.50
10062;DHT22;5070;52.382;5.270;2022-08-01T02:39:51;25.00;78.70
10062;DHT22;5070;52.382;5.270;2022-08-01T02:42:22;25.00;78.70
10062;DHT22;5070;52.382;5.270;2022-08-01T02:44:52;25.00;78.60
10062;DHT22;5070;52.382;5.270;2022-08-01T02:47:25;24.90;78.40
10062;DHT22;5070;52.382;5.270;2022-08-01T02:49:55;25.00;78.60
10062;DHT22;5070;52.382;5.270;2022-08-01T02:52:24;24.90;79.70
10062;DHT22;5070;52.382;5.270;2022-08-01T02:54:55;25.00;78.90
10062;DHT22;5070;52.382;5.270;2022-08-01T02:57:25;25.00;79.10
10062;DHT22;5070;52.382;5.270;2022-08-01T03:00:14;24.90;79.30
10062;DHT22;5070;52.382;5.270;2022-08-01T03:02:45;24.90;79.20
10062;DHT22;5070;52.382;5.270;2022-08-01T03:05:15;24.90;79.40
10062;DHT22;5070;52.382;5.270;2022-08-01T03:07:45;24.90;79.60
10062;DHT22;5070;52.382;5.270;2022-08-01T03:10:15;24.90;79.80
10062;DHT22;5070;52.382;5.270;2022-08-01T03:12:45;24.90;79.70
10062;DHT22;5070;52.382;5.270;2022-08-01T03:15:15;24.90;80.00
10062;DHT22;5070;52.382;5.270;2022-08-01T03:17:47;24.90;80.10
10062;DHT22;5070;52.382;5.270;2022-08-01T03:20:18;24.90;80.10
10062;DHT22;5070;52.382;5.270;2022-08-01T03:22:49;24.90;80.00
10062;DHT22;5070;52.382;5.270;2022-08-01T03:25:20;24.90;79.90
10062;DHT22;5070;52.382;5.270;2022-08-01T03:27:54;24.80;79.80
10062;DHT22;5070;52.382;5.270;2022-08-01T03:30:23;24.80;79.60
10062;DHT22;5070;52.382;5.270;2022-08-01T03:32:55;24.80;79.60
10062;DHT22;5070;52.382;5.270;2022-08-01T03:35:28;24.80;79.50
10062;DHT22;5070;52.382;5.270;2022-08-01T03:37:59;24.80;79.50
10062;DHT22;5070;52.382;5.270;2022-08-01T03:40:47;24.80;79.40
10062;DHT22;5070;52.382;5.270;2022-08-01T03:43:20;24.80;79.50
10062;DHT22;5070;52.382;5.270;2022-08-01T03:45:54;24.80;79.40
10062;DHT22;5070;52.382;5.270;2022-08-01T03:48:29;24.80;79.40
10062;DHT22;5070;52.382;5.270;2022-08-01T03:51:04;24.80;79.30
10062;DHT22;5070;52.382;5.270;2022-08-01T03:53:33;24.80;79.40
10062;DHT22;5070;52.382;5.270;2022-08-01T03:56:08;24.80;79.40
10062;DHT22;5070;52.382;5.270;2022-08-01T03:58:38;24.80;79.50
10062;DHT22;5070;52.382;5.270;2022-08-01T04:01:07;24.80;79.60
10062;DHT22;5070;52.382;5.270;2022-08-01T04:03:43;24.80;79.60
10062;DHT22;5070;52.382;5.270;2022-08-01T04:06:11;24.80;79.70
10062;DHT22;5070;52.382;5.270;2022-08-01T04:08:41;24.70;79.70
10062;DHT22;5070;52.382;5.270;2022-08-01T04:11:10;24.70;79.80
10062;DHT22;5070;52.382;5.270;2022-08-01T04:13:38;24.70;79.90
10062;DHT22;5070;52.382;5.270;2022-08-01T04:16:10;24.70;79.90
10062;DHT22;5070;52.382;5.270;2022-08-01T04:18:38;24.70;80.00
10062;DHT22;5070;52.382;5.270;2022-08-01T04:21:07;24.70;80.00
10062;DHT22;5070;52.382;5.270;2022-08-01T04:23:35;24.70;80.00
10062;DHT22;5070;52.382;5.270;2022-08-01T04:26:05;24.70;80.10
10062;DHT22;5070;52.382;5.270;2022-08-01T04:28:34;24.70;80.00
10062;DHT22;5070;52.382;5.270;2022-08-01T04:31:07;24.70;80.00
10062;DHT22;5070;52.382;5.270;2022-08-01T04:33:38;24.70;80.10
10062;DHT22;5070;52.382;5.270;2022-08-01T04:36:10;24.70;80.30
10062;DHT22;5070;52.382;5.270;2022-08-01T04:38:40;24.70;80.30
10062;DHT22;5070;52.382;5.270;2022-08-01T04:41:11;24.70;80.30
10062;DHT22;5070;52.382;5.270;2022-08-01T04:43:42;24.60;80.20
10062;DHT22;5070;52.382;5.270;2022-08-01T04:46:11;24.60;80.00
10062;DHT22;5070;52.382;5.270;2022-08-01T04:48:41;24.60;80.00
10062;DHT22;5070;52.382;5.270;2022-08-01T04:51:14;24.60;80.00
10062;DHT22;5070;52.382;5.270;2022-08-01T04:53:43;24.60;79.90
10062;DHT22;5070;52.382;5.270;2022-08-01T04:56:14;24.60;79.90
10062;DHT22;5070;52.382;5.270;2022-08-01T04:58:43;24.60;79.90
10062;DHT22;5070;52.382;5.270;2022-08-01T05:01:11;24.60;80.00
10062;DHT22;5070;52.382;5.270;2022-08-01T05:03:39;24.60;80.00
10062;DHT22;5070;52.382;5.270;2022-08-01T05:06:07;24.60;80.10
10062;DHT22;5070;52.382;5.270;2022-08-01T05:08:37;24.60;80.10
10062;DHT22;5070;52.382;5.270;2022-08-01T05:11:04;24.60;80.00
10062;DHT22;5070;52.382;5.270;2022-08-01T05:13:32;24.60;80.20
10062;DHT22;5070;52.382;5.270;2022-08-01T05:16:00;24.60;80.20
10062;DHT22;5070;52.382;5.270;2022-08-01T05:18:30;24.60;80.20
10062;DHT22;5070;52.382;5.270;2022-08-01T05:20:58;24.60;80.30
10062;DHT22;5070;52.382;5.270;2022-08-01T05:23:26;24.60;80.20
10062;DHT22;5070;52.382;5.270;2022-08-01T05:26:09;24.60;80.90
10062;DHT22;5070;52.382;5.270;2022-08-01T05:28:43;24.60;79.90
10062;DHT22;5070;52.382;5.270;2022-08-01T05:31:11;24.60;80.00
10062;DHT22;5070;52.382;5.270;2022-08-01T05:33:39;24.60;80.10
10062;DHT22;5070;52.382;5.270;2022-08-01T05:36:07;24.60;80.30
10062;DHT22;5070;52.382;5.270;2022-08-01T05:38:35;24.60;80.00
10062;DHT22;5070;52.382;5.270;2022-08-01T05:41:03;24.50;80.00
10062;DHT22;5070;52.382;5.270;2022-08-01T05:43:33;24.50;80.10
10062;DHT22;5070;52.382;5.270;2022-08-01T05:46:01;24.50;80.20
10062;DHT22;5070;52.382;5.270;2022-08-01T05:48:29;24.50;80.10
10062;DHT22;5070;52.382;5.270;2022-08-01T05:50:57;24.50;80.30
10062;DHT22;5070;52.382;5.270;2022-08-01T05:53:25;24.50;80.10
10062;DHT22;5070;52.382;5.270;2022-08-01T05:55:54;24.50;80.20
10062;DHT22;5070;52.382;5.270;2022-08-01T05:58:22;24.50;80.10
10062;DHT22;5070;52.382;5.270;2022-08-01T06:00:52;24.50;80.20
10062;DHT22;5070;52.382;5.270;2022-08-01T06:03:28;24.50;80.80
10062;DHT22;5070;52.382;5.270;2022-08-01T06:05:58;24.50;80.10
10062;DHT22;5070;52.382;5.270;2022-08-01T06:08:26;24.50;80.00
10062;DHT22;5070;52.382;5.270;2022-08-01T06:10:57;24.50;79.90
10062;DHT22;5070;52.382;5.270;2022-08-01T06:13:25;24.50;80.00
10062;DHT22;5070;52.382;5.270;2022-08-01T06:15:55;24.50;80.10
10062;DHT22;5070;52.382;5.270;2022-08-01T06:18:33;24.50;80.10
10062;DHT22;5070;52.382;5.270;2022-08-01T06:21:03;24.40;80.00
10062;DHT22;5070;52.382;5.270;2022-08-01T06:23:33;24.40;79.80
10062;DHT22;5070;52.382;5.270;2022-08-01T06:26:01;24.40;79.70
10062;DHT22;5070;52.382;5.270;2022-08-01T06:28:29;24.40;79.60
10062;DHT22;5070;52.382;5.270;2022-08-01T06:31:03;24.40;79.40
10062;DHT22;5070;52.382;5.270;2022-08-01T06:33:31;24.40;79.10
10062;DHT22;5070;52.382;5.270;2022-08-01T06:35:58;24.40;79.00
10062;DHT22;5070;52.382;5.270;2022-08-01T06:38:27;24.40;78.70
10062;DHT22;5070;52.382;5.270;2022-08-01T06:40:55;24.40;78.60
10062;DHT22;5070;52.382;5.270;2022-08-01T06:43:23;24.40;78.50
10062;DHT22;5070;52.382;5.270;2022-08-01T06:45:57;24.40;78.20
10062;DHT22;5070;52.382;5.270;2022-08-01T06:48:30;24.40;78.30
10062;DHT22;5070;52.382;5.270;2022-08-01T06:50:58;24.40;78.10
10062;DHT22;5070;52.382;5.270;2022-08-01T06:53:36;24.40;77.90
10062;DHT22;5070;52.382;5.270;2022-08-01T06:56:05;24.30;77.80
10062;DHT22;5070;52.382;5.270;2022-08-01T06:58:35;24.30;77.90
10062;DHT22;5070;52.382;5.270;2022-08-01T07:01:04;24.30;77.70
10062;DHT22;5070;52.382;5.270;2022-08-01T07:03:35;24.30;77.50
10062;DHT22;5070;52.382;5.270;2022-08-01T07:06:21;24.30;77.60
10062;DHT22;5070;52.382;5.270;2022-08-01T07:08:49;24.30;77.60
10062;DHT22;5070;52.382;5.270;2022-08-01T07:11:18;24.30;77.40
10062;DHT22;5070;52.382;5.270;2022-08-01T07:13:46;24.30;77.60
10062;DHT22;5070;52.382;5.270;2022-08-01T07:16:13;24.30;77.40
10062;DHT22;5070;52.382;5.270;2022-08-01T07:18:44;24.30;77.70
10062;DHT22;5070;52.382;5.270;2022-08-01T07:21:11;24.30;77.30
10062;DHT22;5070;52.382;5.270;2022-08-01T07:23:59;24.30;77.30
10062;DHT22;5070;52.382;5.270;2022-08-01T07:26:37;24.30;77.30
10062;DHT22;5070;52.382;5.270;2022-08-01T07:29:18;24.30;77.30
10062;DHT22;5070;52.382;5.270;2022-08-01T07:31:46;24.30;77.20
10062;DHT22;5070;52.382;5.270;2022-08-01T07:34:15;24.30;77.20
10062;DHT22;5070;52.382;5.270;2022-08-01T07:36:43;24.30;77.20
10062;DHT22;5070;52.382;5.270;2022-08-01T07:39:11;24.30;77.20
10062;DHT22;5070;52.382;5.270;2022-08-01T07:41:39;24.30;77.30
10062;DHT22;5070;52.382;5.270;2022-08-01T07:44:27;24.30;77.10
10062;DHT22;5070;52.382;5.270;2022-08-01T07:46:55;24.20;77.00
10062;DHT22;5070;52.382;5.270;2022-08-01T07:49:24;24.20;76.90
10062;DHT22;5070;52.382;5.270;2022-08-01T07:51:52;24.20;77.10
10062;DHT22;5070;52.382;5.270;2022-08-01T07:54:30;24.20;76.90
10062;DHT22;5070;52.382;5.270;2022-08-01T07:57:00;24.20;76.70
10062;DHT22;5070;52.382;5.270;2022-08-01T07:59:28;24.20;76.60
10062;DHT22;5070;52.382;5.270;2022-08-01T08:01:56;24.20;76.30
10062;DHT22;5070;52.382;5.270;2022-08-01T08:04:27;24.20;76.60
10062;DHT22;5070;52.382;5.270;2022-08-01T08:06:55;24.20;76.20
10062;DHT22;5070;52.382;5.270;2022-08-01T08:09:23;24.20;76.30
10062;DHT22;5070;52.382;5.270;2022-08-01T08:11:51;24.20;76.20
10062;DHT22;5070;52.382;5.270;2022-08-01T08:14:19;24.20;76.00
10062;DHT22;5070;52.382;5.270;2022-08-01T08:16:58;24.20;75.60
10062;DHT22;5070;52.382;5.270;2022-08-01T08:19:30;24.20;75.80
10062;DHT22;5070;52.382;5.270;2022-08-01T08:22:05;24.20;75.90
10062;DHT22;5070;52.382;5.270;2022-08-01T08:24:33;24.20;76.00
10062;DHT22;5070;52.382;5.270;2022-08-01T08:27:01;24.20;75.70
10062;DHT22;5070;52.382;5.270;2022-08-01T08:29:30;24.20;75.90
10062;DHT22;5070;52.382;5.270;2022-08-01T08:32:00;24.20;76.00
10062;DHT22;5070;52.382;5.270;2022-08-01T08:34:30;24.20;76.20
10062;DHT22;5070;52.382;5.270;2022-08-01T08:37:02;24.20;76.10
10062;DHT22;5070;52.382;5.270;2022-08-01T08:39:30;24.20;76.00
10062;DHT22;5070;52.382;5.270;2022-08-01T08:42:09;24.20;75.90
10062;DHT22;5070;52.382;5.270;2022-08-01T08:44:37;24.20;76.00
10062;DHT22;5070;52.382;5.270;2022-08-01T08:47:11;24.20;75.90
10062;DHT22;5070;52.382;5.270;2022-08-01T08:49:48;24.20;76.00
10062;DHT22;5070;52.382;5.270;2022-08-01T08:52:19;24.20;75.90
10062;DHT22;5070;52.382;5.270;2022-08-01T08:54:48;24.20;75.60
10062;DHT22;5070;52.382;5.270;2022-08-01T08:57:19;24.20;76.00
10062;DHT22;5070;52.382;5.270;2022-08-01T08:59:48;24.20;75.60
10062;DHT22;5070;52.382;5.270;2022-08-01T09:02:18;24.20;75.60
10062;DHT22;5070;52.382;5.270;2022-08-01T09:04:50;24.20;75.60
10062;DHT22;5070;52.382;5.270;2022-08-01T09:07:18;24.20;75.90
10062;DHT22;5070;52.382;5.270;2022-08-01T09:09:46;24.20;75.40
10062;DHT22;5070;52.382;5.270;2022-08-01T09:12:17;24.20;75.60
10062;DHT22;5070;52.382;5.270;2022-08-01T09:14:55;24.20;75.90
10062;DHT22;5070;52.382;5.270;2022-08-01T09:17:39;24.20;75.90
10062;DHT22;5070;52.382;5.270;2022-08-01T09:20:22;24.20;75.80
10062;DHT22;5070;52.382;5.270;2022-08-01T09:22:50;24.20;75.90
10062;DHT22;5070;52.382;5.270;2022-08-01T09:25:18;24.20;75.90
10062;DHT22;5070;52.382;5.270;2022-08-01T09:28:03;24.20;76.00
10062;DHT22;5070;52.382;5.270;2022-08-01T09:30:37;24.20;75.90
10062;DHT22;5070;52.382;5.270;2022-08-01T09:33:06;24.20;75.50
10062;DHT22;5070;52.382;5.270;2022-08-01T09:35:54;24.20;74.90
10062;DHT22;5070;52.382;5.270;2022-08-01T09:38:24;24.20;74.70
10062;DHT22;5070;52.382;5.270;2022-08-01T09:40:54;24.20;74.90
10062;DHT22;5070;52.382;5.270;2022-08-01T09:43:25;24.20;75.30
10062;DHT22;5070;52.382;5.270;2022-08-01T09:45:53;24.20;74.90
10062;DHT22;5070;52.382;5.270;2022-08-01T09:48:24;24.10;75.00
10062;DHT22;5070;52.382;5.270;2022-08-01T09:50:59;24.10;75.00
10062;DHT22;5070;52.382;5.270;2022-08-01T09:53:44;24.20;75.00
10062;DHT22;5070;52.382;5.270;2022-08-01T09:56:19;24.20;75.60
10062;DHT22;5070;52.382;5.270;2022-08-01T09:58:55;24.20;74.90
10062;DHT22;5070;52.382;5.270;2022-08-01T10:01:39;24.20;75.20
10062;DHT22;5070;52.382;5.270;2022-08-01T10:04:11;24.20;74.80
10062;DHT22;5070;52.382;5.270;2022-08-01T10:06:44;24.20;74.20
10062;DHT22;5070;52.382;5.270;2022-08-01T10:09:13;24.20;74.80
10062;DHT22;5070;52.382;5.270;2022-08-01T10:11:42;24.20;75.20
10062;DHT22;5070;52.382;5.270;2022-08-01T10:14:11;24.20;75.50
10062;DHT22;5070;52.382;5.270;2022-08-01T10:16:45;24.20;75.60
10062;DHT22;5070;52.382;5.270;2022-08-01T10:19:23;24.20;75.70
10062;DHT22;5070;52.382;5.270;2022-08-01T10:21:57;24.20;75.20
10062;DHT22;5070;52.382;5.270;2022-08-01T10:24:28;24.20;75.20
10062;DHT22;5070;52.382;5.270;2022-08-01T10:27:02;24.20;74.50
10062;DHT22;5070;52.382;5.270;2022-08-01T10:29:40;24.20;75.00
10062;DHT22;5070;52.382;5.270;2022-08-01T10:32:31;24.20;74.90
10062;DHT22;5070;52.382;5.270;2022-08-01T10:35:02;24.20;75.30
10062;DHT22;5070;52.382;5.270;2022-08-01T10:37:37;24.20;75.10
10062;DHT22;5070;52.382;5.270;2022-08-01T10:40:18;24.20;75.30
10062;DHT22;5070;52.382;5.270;2022-08-01T10:43:03;24.20;74.80
10062;DHT22;5070;52.382;5.270;2022-08-01T10:45:31;24.20;74.60
10062;DHT22;5070;52.382;5.270;2022-08-01T10:48:04;24.20;74.80
10062;DHT22;5070;52.382;5.270;2022-08-01T10:50:39;24.20;74.50
10062;DHT22;5070;52.382;5.270;2022-08-01T10:53:13;24.20;74.10
10062;DHT22;5070;52.382;5.270;2022-08-01T10:56:01;24.20;74.00
10062;DHT22;5070;52.382;5.270;2022-08-01T10:58:32;24.20;73.60
10062;DHT22;5070;52.382;5.270;2022-08-01T11:01:20;24.20;73.90
10062;DHT22;5070;52.382;5.270;2022-08-01T11:04:02;24.20;73.70
10062;DHT22;5070;52.382;5.270;2022-08-01T11:06:42;24.20;73.80
10062;DHT22;5070;52.382;5.270;2022-08-01T11:09:37;24.20;74.00
10062;DHT22;5070;52.382;5.270;2022-08-01T11:12:08;24.20;74.20
10062;DHT22;5070;52.382;5.270;2022-08-01T11:15:20;24.20;74.50
10062;DHT22;5070;52.382;5.270;2022-08-01T11:17:58;24.20;74.60
10062;DHT22;5070;52.382;5.270;2022-08-01T11:20:28;24.20;74.00
10062;DHT22;5070;52.382;5.270;2022-08-01T11:23:15;24.20;73.20
10062;DHT22;5070;52.382;5.270;2022-08-01T11:26:07;24.20;70.90
10062;DHT22;5070;52.382;5.270;2022-08-01T11:28:36;24.20;72.40
10062;DHT22;5070;52.382;5.270;2022-08-01T11:31:29;24.20;72.50
10062;DHT22;5070;52.382;5.270;2022-08-01T11:34:04;24.20;72.10
10062;DHT22;5070;52.382;5.270;2022-08-01T11:36:33;24.20;72.80
10062;DHT22;5070;52.382;5.270;2022-08-01T11:39:21;24.20;70.90
10062;DHT22;5070;52.382;5.270;2022-08-01T11:41:51;24.20;70.60
10062;DHT22;5070;52.382;5.270;2022-08-01T11:44:23;24.20;70.90
10062;DHT22;5070;52.382;5.270;2022-08-01T11:47:02;24.20;71.50
10062;DHT22;5070;52.382;5.270;2022-08-01T11:49:56;24.20;72.30
10062;DHT22;5070;52.382;5.270;2022-08-01T11:52:30;24.20;72.70
10062;DHT22;5070;52.382;5.270;2022-08-01T11:55:06;24.20;72.70
10062;DHT22;5070;52.382;5.270;2022-08-01T11:57:37;24.20;72.30
10062;DHT22;5070;52.382;5.270;2022-08-01T12:00:13;24.20;71.10
10062;DHT22;5070;52.382;5.270;2022-08-01T12:02:44;24.20;72.00
10062;DHT22;5070;52.382;5.270;2022-08-01T12:05:14;24.20;71.70
10062;DHT22;5070;52.382;5.270;2022-08-01T12:07:45;24.20;72.10
10062;DHT22;5070;52.382;5.270;2022-08-01T12:10:20;24.20;72.80
10062;DHT22;5070;52.382;5.270;2022-08-01T12:12:51;24.20;73.60
10062;DHT22;5070;52.382;5.270;2022-08-01T12:15:21;24.20;74.70
10062;DHT22;5070;52.382;5.270;2022-08-01T12:17:54;24.20;75.50
10062;DHT22;5070;52.382;5.270;2022-08-01T12:20:28;24.20;76.30
10062;DHT22;5070;52.382;5.270;2022-08-01T12:22:58;24.20;75.80
10062;DHT22;5070;52.382;5.270;2022-08-01T12:25:27;24.30;75.90
10062;DHT22;5070;52.382;5.270;2022-08-01T12:28:00;24.20;75.90
10062;DHT22;5070;52.382;5.270;2022-08-01T12:30:29;24.30;75.80
10062;DHT22;5070;52.382;5.270;2022-08-01T12:32:58;24.30;75.30
10062;DHT22;5070;52.382;5.270;2022-08-01T12:35:29;24.30;75.20
10062;DHT22;5070;52.382;5.270;2022-08-01T12:38:02;24.30;75.10
10062;DHT22;5070;52.382;5.270;2022-08-01T12:40:31;24.30;74.80
10062;DHT22;5070;52.382;5.270;2022-08-01T12:43:07;24.30;74.50
10062;DHT22;5070;52.382;5.270;2022-08-01T12:45:42;24.30;74.40
10062;DHT22;5070;52.382;5.270;2022-08-01T12:48:22;24.30;74.20
10062;DHT22;5070;52.382;5.270;2022-08-01T12:50:51;24.30;74.20
10062;DHT22;5070;52.382;5.270;2022-08-01T12:53:20;24.30;74.20
10062;DHT22;5070;52.382;5.270;2022-08-01T12:55:50;24.30;74.10
10062;DHT22;5070;52.382;5.270;2022-08-01T12:58:31;24.40;73.90
10062;DHT22;5070;52.382;5.270;2022-08-01T13:01:03;24.40;73.80
10062;DHT22;5070;52.382;5.270;2022-08-01T13:03:32;24.40;73.50
10062;DHT22;5070;52.382;5.270;2022-08-01T13:06:00;24.30;73.40
10062;DHT22;5070;52.382;5.270;2022-08-01T13:08:31;24.40;73.50
10062;DHT22;5070;52.382;5.270;2022-08-01T13:11:04;24.40;73.30
10062;DHT22;5070;52.382;5.270;2022-08-01T13:13:40;24.40;73.10
10062;DHT22;5070;52.382;5.270;2022-08-01T13:16:09;24.40;73.00
10062;DHT22;5070;52.382;5.270;2022-08-01T13:19:00;24.40;73.00
10062;DHT22;5070;52.382;5.270;2022-08-01T13:21:29;24.40;73.00
10062;DHT22;5070;52.382;5.270;2022-08-01T13:24:23;24.40;73.00
10062;DHT22;5070;52.382;5.270;2022-08-01T13:26:53;24.40;73.00
10062;DHT22;5070;52.382;5.270;2022-08-01T13:29:33;24.40;72.70
10062;DHT22;5070;52.382;5.270;2022-08-01T13:32:12;24.40;72.40
10062;DHT22;5070;52.382;5.270;2022-08-01T13:35:02;24.50;72.70
10062;DHT22;5070;52.382;5.270;2022-08-01T13:37:30;24.50;72.70
10062;DHT22;5070;52.382;5.270;2022-08-01T13:39:58;24.50;72.90
10062;DHT22;5070;52.382;5.270;2022-08-01T13:42:26;24.50;73.00
10062;DHT22;5070;52.382;5.270;2022-08-01T13:44:57;24.50;73.00
10062;DHT22;5070;52.382;5.270;2022-08-01T13:47:25;24.50;73.20
10062;DHT22;5070;52.382;5.270;2022-08-01T13:49:58;24.50;73.40
10062;DHT22;5070;52.382;5.270;2022-08-01T13:52:29;24.50;74.00
10062;DHT22;5070;52.382;5.270;2022-08-01T13:54:57;24.50;73.60
10062;DHT22;5070;52.382;5.270;2022-08-01T13:57:25;24.50;73.70
10062;DHT22;5070;52.382;5.270;2022-08-01T14:00:05;24.60;73.60
10062;DHT22;5070;52.382;5.270;2022-08-01T14:02:37;24.60;73.40
10062;DHT22;5070;52.382;5.270;2022-08-01T14:05:06;24.60;73.10
10062;DHT22;5070;52.382;5.270;2022-08-01T14:07:34;24.60;73.00
10062;DHT22;5070;52.382;5.270;2022-08-01T14:10:04;24.60;73.20
10062;DHT22;5070;52.382;5.270;2022-08-01T14:12:46;24.60;73.40
10062;DHT22;5070;52.382;5.270;2022-08-01T14:15:15;24.60;73.50
10062;DHT22;5070;52.382;5.270;2022-08-01T14:18:04;24.60;73.50
10062;DHT22;5070;52.382;5.270;2022-08-01T14:20:32;24.60;73.30
10062;DHT22;5070;52.382;5.270;2022-08-01T14:23:00;24.70;73.30
10062;DHT22;5070;52.382;5.270;2022-08-01T14:25:28;24.70;73.00
10062;DHT22;5070;52.382;5.270;2022-08-01T14:28:16;24.60;73.00
10062;DHT22;5070;52.382;5.270;2022-08-01T14:30:46;24.70;72.90
10062;DHT22;5070;52.382;5.270;2022-08-01T14:33:17;24.70;72.70
10062;DHT22;5070;52.382;5.270;2022-08-01T14:35:45;24.70;72.70
10062;DHT22;5070;52.382;5.270;2022-08-01T14:38:33;24.70;72.70
10062;DHT22;5070;52.382;5.270;2022-08-01T14:41:02;24.70;72.80
10062;DHT22;5070;52.382;5.270;2022-08-01T14:43:30;24.70;72.90
10062;DHT22;5070;52.382;5.270;2022-08-01T14:46:01;24.70;72.70
10062;DHT22;5070;52.382;5.270;2022-08-01T14:48:30;24.70;72.50
10062;DHT22;5070;52.382;5.270;2022-08-01T14:50:59;24.80;72.80
10062;DHT22;5070;52.382;5.270;2022-08-01T14:53:29;24.80;72.90
10062;DHT22;5070;52.382;5.270;2022-08-01T14:56:02;24.80;72.80
10062;DHT22;5070;52.382;5.270;2022-08-01T14:58:30;24.80;72.90
10062;DHT22;5070;52.382;5.270;2022-08-01T15:00:58;24.80;72.90
10062;DHT22;5070;52.382;5.270;2022-08-01T15:03:28;24.80;72.80
10062;DHT22;5070;52.382;5.270;2022-08-01T15:05:58;24.80;72.90
10062;DHT22;5070;52.382;5.270;2022-08-01T15:08:26;24.90;73.10
10062;DHT22;5070;52.382;5.270;2022-08-01T15:10:56;24.90;73.20
10062;DHT22;5070;52.382;5.270;2022-08-01T15:13:23;24.90;73.40
10062;DHT22;5070;52.382;5.270;2022-08-01T15:15:51;24.90;73.10
10062;DHT22;5070;52.382;5.270;2022-08-01T15:18:19;24.90;73.00
10062;DHT22;5070;52.382;5.270;2022-08-01T15:20:48;24.90;72.70
10062;DHT22;5070;52.382;5.270;2022-08-01T15:23:16;24.90;72.70
10062;DHT22;5070;52.382;5.270;2022-08-01T15:25:44;25.00;72.60
10062;DHT22;5070;52.382;5.270;2022-08-01T15:28:13;25.00;72.40
10062;DHT22;5070;52.382;5.270;2022-08-01T15:30:41;25.00;72.10
10062;DHT22;5070;52.382;5.270;2022-08-01T15:33:11;25.00;72.00
10062;DHT22;5070;52.382;5.270;2022-08-01T15:35:43;25.00;72.00
10062;DHT22;5070;52.382;5.270;2022-08-01T15:38:12;25.00;72.10
10062;DHT22;5070;52.382;5.270;2022-08-01T15:40:40;25.00;71.80
10062;DHT22;5070;52.382;5.270;2022-08-01T15:43:11;25.00;71.70
10062;DHT22;5070;52.382;5.270;2022-08-01T15:45:41;25.10;71.90
10062;DHT22;5070;52.382;5.270;2022-08-01T15:48:14;25.00;72.00
10062;DHT22;5070;52.382;5.270;2022-08-01T15:50:42;25.10;72.20
10062;DHT22;5070;52.382;5.270;2022-08-01T15:53:12;25.10;72.10
10062;DHT22;5070;52.382;5.270;2022-08-01T15:55:40;25.10;72.20
10062;DHT22;5070;52.382;5.270;2022-08-01T15:58:18;25.10;71.90
10062;DHT22;5070;52.382;5.270;2022-08-01T16:00:46;25.10;71.70
10062;DHT22;5070;52.382;5.270;2022-08-01T16:03:14;25.20;71.80
10062;DHT22;5070;52.382;5.270;2022-08-01T16:05:42;25.20;71.80
10062;DHT22;5070;52.382;5.270;2022-08-01T16:08:12;25.20;71.70
10062;DHT22;5070;52.382;5.270;2022-08-01T16:10:44;25.20;71.40
10062;DHT22;5070;52.382;5.270;2022-08-01T16:13:12;25.20;71.20
10062;DHT22;5070;52.382;5.270;2022-08-01T16:15:40;25.30;71.30
10062;DHT22;5070;52.382;5.270;2022-08-01T16:18:10;25.30;71.50